Time;durP1;ratioP1;P1;durP2;ratioP2;P2;SDS_P1;SDS_P2;PMS_P1;PMS_P2;Temp;Humidity;BMP_temperature;BMP_pressure;BME280_temperature;BME280_humidity;BME280_pressure;Samples;Min_cycle;Max_cycle;Signal;HPM_P1;HPM_P2
2023/08/11 00:01:21;;;;;;;3.40;2.20;;;;;;;28.89;37.36;101077.81;103953;1290;61375;-83
2023/08/11 00:03:46;;;;;;;3.10;2.00;;;;;;;28.89;37.33;101081.77;103824;1287;61370;-83
2023/08/11 00:06:13;;;;;;;3.10;2.10;;;;;;;28.90;37.38;101081.00;103788;1286;61411;-82
2023/08/11 00:08:40;;;;;;;4.00;2.40;;;;;;;28.89;37.23;101081.63;103786;1286;61455;-82
2023/08/11 00:11:06;;;;;;;3.60;2.20;;;;;;;28.89;37.36;101081.25;103741;1287;61180;-83
2023/08/11 00:13:31;;;;;;;3.30;2.30;;;;;;;28.89;37.31;101083.21;103818;1286;61462;-82
2023/08/11 00:15:57;;;;;;;2.60;1.90;;;;;;;28.88;37.27;101082.05;103538;1292;61396;-82
2023/08/11 00:18:23;;;;;;;3.70;2.20;;;;;;;28.89;37.24;101083.08;103732;1288;61195;-83
2023/08/11 00:20:48;;;;;;;3.70;2.40;;;;;;;28.89;37.28;101087.06;103807;1287;61395;-83
2023/08/11 00:23:15;;;;;;;3.60;2.10;;;;;;;28.88;37.39;101083.67;103932;1287;61476;-83
2023/08/11 00:25:42;;;;;;;4.40;2.40;;;;;;;28.88;37.45;101082.60;103802;1288;63573;-83
2023/08/11 00:28:08;;;;;;;3.50;2.40;;;;;;;28.89;37.20;101083.46;103731;1286;61370;-83
2023/08/11 00:30:33;;;;;;;3.30;2.30;;;;;;;28.88;37.45;101081.17;103531;1286;61395;-83
2023/08/11 00:32:59;;;;;;;3.50;2.30;;;;;;;28.88;37.27;101078.31;103856;1288;61415;-82
2023/08/11 00:35:24;;;;;;;3.40;2.30;;;;;;;28.87;37.40;101078.36;103922;1290;61405;-83
2023/08/11 00:37:50;;;;;;;3.40;2.10;;;;;;;28.87;37.43;101083.41;103492;1286;63631;-83
2023/08/11 00:40:16;;;;;;;4.30;2.30;;;;;;;28.87;37.37;101084.88;103933;1286;61320;-83
2023/08/11 00:42:42;;;;;;;3.80;2.10;;;;;;;28.87;37.29;101083.98;103950;1288;61395;-83
2023/08/11 00:45:09;;;;;;;3.20;2.30;;;;;;;28.87;37.52;101085.42;103710;1290;61755;-83
2023/08/11 00:47:35;;;;;;;3.60;2.20;;;;;;;28.87;37.22;101082.17;103713;1287;61321;-83
2023/08/11 00:50:02;;;;;;;3.10;2.20;;;;;;;28.86;37.38;101084.02;103787;1288;61479;-83
2023/08/11 00:52:27;;;;;;;3.20;2.10;;;;;;;28.86;37.36;101085.13;103703;1285;61342;-83
2023/08/11 00:54:53;;;;;;;2.90;2.20;;;;;;;28.87;37.39;101083.64;103596;1286;61402;-83
2023/08/11 00:57:19;;;;;;;3.60;2.40;;;;;;;28.87;37.41;101086.16;103722;1288;61389;-82
2023/08/11 00:59:46;;;;;;;4.10;2.20;;;;;;;28.86;37.60;101086.79;103758;1287;61392;-83
2023/08/11 01:02:12;;;;;;;3.90;2.10;;;;;;;28.86;37.56;101087.00;103761;1286;65836;-83
2023/08/11 01:04:38;;;;;;;3.00;2.20;;;;;;;28.86;37.63;101083.88;103867;1287;61339;-83
2023/08/11 01:07:31;;;;;;;3.10;2.10;;;;;;;28.85;37.50;101082.69;103873;1287;61380;-83
2023/08/11 01:10:19;;;;;;;3.90;2.20;;;;;;;28.85;37.42;101083.83;103318;1287;62558;-83
2023/08/11 01:12:56;;;;;;;2.90;2.10;;;;;;;28.85;37.49;101087.09;103851;1288;66880;-83
2023/08/11 01:15:24;;;;;;;3.00;2.00;;;;;;;28.85;37.57;101084.93;103840;1286;61319;-83
2023/08/11 01:17:50;;;;;;;3.40;2.10;;;;;;;28.85;37.51;101079.86;103961;1286;61274;-83
2023/08/11 01:20:18;;;;;;;3.40;2.30;;;;;;;28.84;37.58;101078.98;103763;1286;63758;-83
2023/08/11 01:22:53;;;;;;;3.80;2.30;;;;;;;28.84;37.65;101077.02;103821;1287;65747;-82
2023/08/11 01:25:18;;;;;;;3.10;2.20;;;;;;;28.85;37.65;101076.06;103456;1288;61387;-82
2023/08/11 01:27:55;;;;;;;4.00;2.30;;;;;;;28.85;37.75;101075.35;103912;1288;62403;-82
2023/08/11 01:30:20;;;;;;;4.10;2.20;;;;;;;28.84;37.61;101075.43;103805;1286;63862;-82
2023/08/11 01:32:46;;;;;;;3.30;2.20;;;;;;;28.85;37.67;101075.20;103765;1286;61478;-82
2023/08/11 01:35:11;;;;;;;3.60;2.20;;;;;;;28.84;37.42;101070.88;103700;1285;61322;-82
2023/08/11 01:37:37;;;;;;;4.00;2.20;;;;;;;28.84;37.43;101075.00;103856;1288;61806;-82
2023/08/11 01:40:10;;;;;;;3.00;2.00;;;;;;;28.84;37.58;101075.03;103973;1284;61381;-82
2023/08/11 01:42:39;;;;;;;3.60;2.30;;;;;;;28.84;37.70;101075.61;103849;1284;63632;-82
2023/08/11 01:45:10;;;;;;;3.10;2.10;;;;;;;28.84;37.63;101075.06;103942;1288;65914;-82
2023/08/11 01:47:41;;;;;;;4.30;2.40;;;;;;;28.84;37.48;101074.86;103919;1285;61437;-82
2023/08/11 01:50:07;;;;;;;3.40;2.00;;;;;;;28.84;37.41;101075.46;103875;1285;61457;-83
2023/08/11 01:52:39;;;;;;;3.10;2.20;;;;;;;28.83;37.68;101072.38;103752;1284;61364;-83
2023/08/11 01:55:06;;;;;;;3.80;2.10;;;;;;;28.84;37.67;101072.71;103843;1290;65904;-82
2023/08/11 01:57:32;;;;;;;3.00;2.10;;;;;;;28.84;37.57;101071.60;103903;1284;61337;-82
2023/08/11 01:59:58;;;;;;;3.00;2.00;;;;;;;28.84;37.49;101068.70;103926;1287;61351;-82
2023/08/11 02:02:24;;;;;;;3.50;2.10;;;;;;;28.83;37.60;101070.23;103864;1285;61916;-83
2023/08/11 02:04:49;;;;;;;3.10;2.10;;;;;;;28.84;37.51;101070.91;103904;1285;61430;-82
2023/08/11 02:07:15;;;;;;;3.40;2.00;;;;;;;28.84;37.57;101071.11;103994;1284;61583;-82
2023/08/11 02:09:41;;;;;;;3.20;2.20;;;;;;;28.83;37.66;101069.52;103794;1285;61792;-82
2023/08/11 02:12:07;;;;;;;3.00;2.30;;;;;;;28.83;37.77;101070.23;103823;1284;61354;-82
2023/08/11 02:14:33;;;;;;;4.10;2.10;;;;;;;28.83;37.63;101073.69;103841;1288;63955;-82
2023/08/11 02:16:59;;;;;;;3.30;2.10;;;;;;;28.83;37.66;101077.13;103963;1284;61466;-82
2023/08/11 02:19:24;;;;;;;2.90;1.90;;;;;;;28.83;37.49;101080.04;103781;1285;61357;-82
2023/08/11 02:21:50;;;;;;;2.70;2.00;;;;;;;28.82;37.62;101081.36;103958;1289;61392;-82
2023/08/11 02:24:15;;;;;;;3.10;2.00;;;;;;;28.83;37.50;101083.54;103895;1284;61356;-83
2023/08/11 02:26:41;;;;;;;3.50;2.00;;;;;;;28.83;37.61;101081.91;103754;1288;63591;-83
2023/08/11 02:29:11;;;;;;;2.70;2.00;;;;;;;28.82;37.65;101081.95;103950;1287;65766;-83
2023/08/11 02:31:36;;;;;;;3.10;2.10;;;;;;;28.82;37.77;101086.26;103822;1286;61562;-83
2023/08/11 02:34:02;;;;;;;3.70;2.10;;;;;;;28.82;37.65;101085.02;103643;1288;61329;-83
2023/08/11 02:36:27;;;;;;;4.10;2.20;;;;;;;28.82;37.68;101083.40;103564;1288;61395;-83
2023/08/11 02:38:53;;;;;;;3.40;2.20;;;;;;;28.82;37.79;101085.72;103740;1288;61415;-83
2023/08/11 02:41:19;;;;;;;3.90;2.10;;;;;;;28.82;37.76;101085.77;103601;1288;65750;-83
2023/08/11 02:43:47;;;;;;;;;;;;;;;28.82;37.76;101085.98;103756;1287;61453;-83
2023/08/11 02:46:13;;;;;;;3.50;2.00;;;;;;;28.79;37.78;101085.17;103760;1287;61366;-83
2023/08/11 02:48:39;;;;;;;2.90;2.10;;;;;;;28.80;37.76;101084.13;103669;1288;62055;-83
2023/08/11 02:51:05;;;;;;;3.60;2.30;;;;;;;28.80;37.97;101088.48;103603;1292;61380;-83
2023/08/11 02:53:31;;;;;;;4.10;2.20;;;;;;;28.80;37.58;101089.25;103597;1287;61385;-83
2023/08/11 02:55:56;;;;;;;3.10;2.10;;;;;;;28.80;37.81;101089.05;103647;1288;61866;-83
2023/08/11 02:58:22;;;;;;;3.10;2.00;;;;;;;28.80;37.77;101094.48;103833;1290;61433;-83
2023/08/11 03:00:49;;;;;;;3.90;2.30;;;;;;;28.80;37.69;101096.45;103841;1290;61401;-83
2023/08/11 03:03:14;;;;;;;4.20;2.20;;;;;;;28.80;37.63;101099.71;104023;1285;65826;-83
2023/08/11 03:05:43;;;;;;;2.70;1.90;;;;;;;28.80;37.86;101100.44;103963;1285;61413;-83
2023/08/11 03:08:08;;;;;;;3.80;2.10;;;;;;;28.80;37.91;101102.27;103878;1287;61170;-83
2023/08/11 03:10:34;;;;;;;3.60;1.90;;;;;;;28.80;37.87;101100.48;103919;1284;61371;-83
2023/08/11 03:13:00;;;;;;;2.90;2.00;;;;;;;28.80;37.50;101100.66;103909;1291;62451;-82
2023/08/11 03:15:26;;;;;;;3.70;2.10;;;;;;;28.80;37.47;101100.08;103947;1284;61383;-83
2023/08/11 03:17:52;;;;;;;3.90;2.10;;;;;;;28.80;37.69;101099.34;103889;1284;61324;-83
2023/08/11 03:20:18;;;;;;;3.00;2.20;;;;;;;28.80;37.82;101101.20;103950;1285;61412;-83
2023/08/11 03:22:43;;;;;;;3.20;2.00;;;;;;;28.80;37.66;101105.52;103969;1285;61440;-82
2023/08/11 03:25:11;;;;;;;4.10;2.50;;;;;;;28.80;37.87;101102.11;103834;1285;66892;-82
2023/08/11 03:27:41;;;;;;;3.50;2.20;;;;;;;28.79;37.71;101106.30;104002;1288;61278;-83
2023/08/11 03:30:08;;;;;;;3.80;2.10;;;;;;;28.80;37.51;101108.29;103947;1284;61456;-83
2023/08/11 03:32:34;;;;;;;3.80;2.20;;;;;;;28.79;37.66;101111.92;103843;1288;63701;-83
2023/08/11 03:34:59;;;;;;;3.50;2.20;;;;;;;28.80;37.69;101115.36;103739;1287;61328;-82
2023/08/11 03:37:25;;;;;;;4.00;2.10;;;;;;;28.80;37.64;101118.94;103933;1293;61499;-82
2023/08/11 03:39:51;;;;;;;3.10;2.10;;;;;;;28.80;37.63;101117.70;103771;1288;61265;-82
2023/08/11 03:42:17;;;;;;;3.30;1.90;;;;;;;28.80;37.72;101114.27;103708;1288;61433;-83
2023/08/11 03:44:43;;;;;;;3.00;2.20;;;;;;;28.80;37.66;101114.73;103619;1293;61486;-83
2023/08/11 03:47:09;;;;;;;3.60;2.10;;;;;;;28.80;37.82;101116.92;103682;1288;64545;-83
2023/08/11 03:49:35;;;;;;;4.80;2.20;;;;;;;28.80;37.85;101116.80;103544;1288;61320;-83
2023/08/11 03:52:00;;;;;;;3.20;2.00;;;;;;;28.80;37.83;101120.18;103753;1288;61488;-83
2023/08/11 03:54:26;;;;;;;3.80;2.00;;;;;;;28.80;37.85;101125.63;103791;1288;61309;-83
2023/08/11 03:56:51;;;;;;;3.60;2.10;;;;;;;28.80;37.77;101123.42;103712;1286;61379;-83
2023/08/11 03:59:17;;;;;;;3.50;2.30;;;;;;;28.81;37.73;101124.30;103776;1289;61389;-83
2023/08/11 04:01:43;;;;;;;3.30;2.00;;;;;;;28.81;37.66;101122.64;103768;1289;61546;-83
2023/08/11 04:04:08;;;;;;;3.70;2.10;;;;;;;28.81;37.74;101123.52;103638;1284;61480;-83
2023/08/11 04:06:34;;;;;;;2.80;1.90;;;;;;;28.81;37.69;101121.41;103912;1289;61412;-83
2023/08/11 04:09:00;;;;;;;3.30;2.10;;;;;;;28.81;37.64;101122.61;103849;1284;61310;-82
2023/08/11 04:11:28;;;;;;;4.70;2.30;;;;;;;28.81;37.69;101124.30;103771;1285;61456;-83
2023/08/11 04:13:53;;;;;;;3.30;2.20;;;;;;;28.81;37.64;101124.84;103834;1290;61276;-82
2023/08/11 04:16:20;;;;;;;3.30;2.20;;;;;;;28.81;37.74;101129.50;103959;1285;61378;-83
2023/08/11 04:18:45;;;;;;;3.90;2.40;;;;;;;28.81;38.06;101127.91;103946;1289;61325;-83
2023/08/11 04:21:11;;;;;;;3.50;2.20;;;;;;;28.81;38.04;101127.73;103851;1291;62599;-82
2023/08/11 04:23:37;;;;;;;4.30;2.30;;;;;;;28.80;37.89;101130.68;103891;1285;61240;-83
2023/08/11 04:26:05;;;;;;;4.40;2.40;;;;;;;28.81;37.53;101135.52;103951;1285;61377;-82
2023/08/11 04:28:32;;;;;;;3.40;2.30;;;;;;;28.81;37.80;101140.98;103923;1289;61833;-82
2023/08/11 04:30:59;;;;;;;4.60;2.30;;;;;;;28.80;37.88;101141.52;103884;1289;61866;-82
2023/08/11 04:33:25;;;;;;;4.00;2.20;;;;;;;28.80;37.81;101148.77;103950;1285;61371;-82
2023/08/11 04:35:51;;;;;;;3.60;2.20;;;;;;;28.80;38.01;101147.56;103869;1284;61392;-83
2023/08/11 04:38:17;;;;;;;2.80;2.00;;;;;;;28.80;37.97;101146.48;103941;1289;61430;-83
2023/08/11 04:40:43;;;;;;;5.00;2.40;;;;;;;28.81;37.98;101148.05;103810;1284;61403;-83
2023/08/11 04:43:09;;;;;;;3.20;2.00;;;;;;;28.79;37.81;101148.36;103967;1284;61434;-83
2023/08/11 04:45:34;;;;;;;3.30;2.10;;;;;;;28.79;37.94;101151.77;103976;1285;62454;-83
2023/08/11 04:48:01;;;;;;;3.30;2.10;;;;;;;28.79;37.72;101149.41;103924;1284;61431;-83
2023/08/11 04:50:27;;;;;;;4.80;2.10;;;;;;;28.79;37.82;101151.60;103910;1284;63611;-83
2023/08/11 04:52:52;;;;;;;3.70;2.30;;;;;;;28.79;37.46;101151.98;103943;1284;61401;-83
2023/08/11 04:55:18;;;;;;;3.60;2.30;;;;;;;28.79;37.73;101149.45;103784;1285;61444;-82
2023/08/11 04:57:43;;;;;;;4.10;2.20;;;;;;;28.79;37.70;101146.43;103984;1284;62325;-83
2023/08/11 05:00:16;;;;;;;3.80;2.20;;;;;;;28.79;37.75;101152.02;103933;1285;61398;-83
2023/08/11 05:02:43;;;;;;;4.70;2.40;;;;;;;28.79;37.75;101156.00;103862;1285;63684;-83
2023/08/11 05:05:09;;;;;;;5.00;2.60;;;;;;;28.79;37.50;101154.75;103868;1290;65788;-83
2023/08/11 05:07:35;;;;;;;4.60;2.60;;;;;;;28.79;37.57;101149.69;103906;1285;61808;-83
2023/08/11 05:10:00;;;;;;;3.60;2.30;;;;;;;28.78;37.60;101146.08;103409;1293;61413;-83
2023/08/11 05:12:26;;;;;;;3.40;2.20;;;;;;;28.79;37.58;101143.15;103834;1290;61496;-83
2023/08/11 05:14:51;;;;;;;3.90;2.40;;;;;;;28.78;37.38;101142.83;103894;1284;61444;-83
2023/08/11 05:17:17;;;;;;;5.30;2.20;;;;;;;28.79;37.57;101143.33;103967;1290;66789;-82
2023/08/11 05:19:42;;;;;;;4.00;2.30;;;;;;;28.79;37.56;101142.19;103948;1289;62077;-83
2023/08/11 05:22:08;;;;;;;4.10;2.40;;;;;;;28.79;37.57;101144.56;103716;1286;61919;-83
2023/08/11 05:24:34;;;;;;;5.20;2.40;;;;;;;28.78;37.27;101143.73;103908;1289;61316;-83
2023/08/11 05:26:59;;;;;;;4.00;2.30;;;;;;;28.78;37.30;101144.63;103712;1284;61429;-82
2023/08/11 05:29:26;;;;;;;3.50;2.30;;;;;;;28.78;37.38;101143.10;103839;1290;65810;-83
2023/08/11 05:31:52;;;;;;;5.60;2.80;;;;;;;28.78;37.37;101146.34;103956;1284;61498;-83
2023/08/11 05:34:17;;;;;;;6.20;2.60;;;;;;;28.77;37.38;101151.05;103920;1285;61381;-83
2023/08/11 05:36:43;;;;;;;4.40;2.50;;;;;;;28.78;37.25;101149.95;103837;1290;61379;-83
2023/08/11 05:39:10;;;;;;;4.70;2.60;;;;;;;28.77;37.08;101148.36;103679;1285;61378;-83
2023/08/11 05:41:36;;;;;;;4.10;2.40;;;;;;;28.77;37.22;101152.90;104016;1289;61357;-82
2023/08/11 05:44:03;;;;;;;4.70;2.50;;;;;;;28.76;37.14;101155.30;103852;1284;61438;-83
2023/08/11 05:46:30;;;;;;;3.50;2.30;;;;;;;28.77;37.28;101155.98;103765;1290;61337;-83
2023/08/11 05:48:57;;;;;;;4.80;2.30;;;;;;;28.77;37.05;101154.70;103979;1289;62556;-83
2023/08/11 05:51:23;;;;;;;4.90;2.70;;;;;;;28.77;36.91;101154.33;103756;1284;61955;-83
2023/08/11 05:53:49;;;;;;;3.70;2.30;;;;;;;28.78;36.90;101156.95;103872;1290;61363;-82
2023/08/11 05:56:15;;;;;;;4.80;2.50;;;;;;;28.80;36.96;101159.17;103861;1290;62520;-83
2023/08/11 05:58:40;;;;;;;3.90;2.20;;;;;;;28.81;36.88;101162.88;103845;1285;61412;-83
2023/08/11 06:01:06;;;;;;;5.90;2.50;;;;;;;28.81;36.98;101162.48;103894;1290;61433;-83
2023/08/11 06:03:31;;;;;;;5.10;2.90;;;;;;;28.82;36.98;101163.30;103849;1285;61426;-83
2023/08/11 06:06:01;;;;;;;3.90;2.40;;;;;;;28.83;36.97;101163.89;103850;1288;61312;-83
2023/08/11 06:08:27;;;;;;;4.50;2.60;;;;;;;28.84;36.96;101169.41;103864;1286;63946;-83
2023/08/11 06:10:55;;;;;;;5.60;2.70;;;;;;;28.85;36.97;101169.35;103878;1284;65642;-83
2023/08/11 06:13:22;;;;;;;4.50;2.60;;;;;;;28.86;36.96;101171.27;103679;1291;61382;-83
2023/08/11 06:15:48;;;;;;;6.00;2.80;;;;;;;28.86;36.99;101171.37;103824;1284;61309;-83
2023/08/11 06:18:14;;;;;;;4.60;2.70;;;;;;;28.87;36.81;101172.77;103798;1284;63918;-84
2023/08/11 06:20:39;;;;;;;5.90;2.70;;;;;;;28.88;36.68;101174.85;104078;1286;61468;-84
2023/08/11 06:23:05;;;;;;;6.10;2.60;;;;;;;28.89;36.90;101175.08;103698;1285;61384;-84
2023/08/11 06:25:30;;;;;;;5.10;2.80;;;;;;;28.89;36.84;101174.70;103900;1284;61386;-84
2023/08/11 06:27:56;;;;;;;3.90;2.50;;;;;;;28.89;36.51;101180.67;103903;1284;61404;-84
2023/08/11 06:30:21;;;;;;;4.60;2.60;;;;;;;28.89;36.55;101177.58;103811;1290;64048;-84
2023/08/11 06:32:47;;;;;;;7.90;2.70;;;;;;;28.90;36.45;101177.11;104096;1284;61460;-84
2023/08/11 06:35:13;;;;;;;4.70;2.40;;;;;;;28.91;36.34;101180.30;103982;1289;61358;-84
2023/08/11 06:37:38;;;;;;;4.90;2.60;;;;;;;28.91;36.73;101183.52;103962;1288;62014;-84
2023/08/11 06:40:04;;;;;;;5.20;2.60;;;;;;;28.92;36.65;101182.73;103480;1287;380934;-84
2023/08/11 06:42:30;;;;;;;4.20;2.50;;;;;;;28.94;36.39;101183.67;104039;1289;61401;-83
2023/08/11 06:44:55;;;;;;;4.70;2.40;;;;;;;28.94;36.56;101186.34;103608;1292;61458;-84
2023/08/11 06:47:21;;;;;;;4.50;2.70;;;;;;;28.95;36.55;101187.52;103923;1285;61804;-82
2023/08/11 06:49:48;;;;;;;4.60;2.50;;;;;;;28.96;36.30;101187.64;103982;1284;62126;-82
2023/08/11 06:52:14;;;;;;;5.40;2.90;;;;;;;28.96;36.24;101188.73;103947;1286;61397;-84
2023/08/11 06:54:40;;;;;;;4.50;2.60;;;;;;;28.97;36.37;101193.70;103906;1284;61281;-82
2023/08/11 06:57:06;;;;;;;4.60;2.60;;;;;;;28.98;36.39;101191.46;103965;1285;61290;-82
2023/08/11 06:59:31;;;;;;;7.00;2.90;;;;;;;28.98;36.30;101186.04;103773;1287;61801;-83
2023/08/11 07:01:57;;;;;;;5.20;2.70;;;;;;;28.98;36.18;101188.00;103887;1284;61504;-82
2023/08/11 07:04:23;;;;;;;4.80;2.60;;;;;;;28.98;36.01;101188.52;103883;1284;63673;-83
2023/08/11 07:06:48;;;;;;;7.00;2.70;;;;;;;28.98;36.22;101188.17;103697;1284;61391;-82
2023/08/11 07:09:14;;;;;;;5.30;2.80;;;;;;;28.98;36.12;101185.45;103906;1286;61336;-82
2023/08/11 07:11:39;;;;;;;4.20;2.50;;;;;;;28.98;36.13;101186.31;103954;1290;61397;-84
2023/08/11 07:14:05;;;;;;;4.60;2.50;;;;;;;28.99;35.83;101187.33;103933;1285;61438;-82
2023/08/11 07:16:31;;;;;;;5.10;2.70;;;;;;;28.99;35.84;101184.77;104091;1290;61378;-82
2023/08/11 07:18:56;;;;;;;5.50;2.40;;;;;;;28.99;35.66;101185.30;104193;1288;61381;-82
2023/08/11 07:21:22;;;;;;;5.10;2.50;;;;;;;29.00;35.64;101183.12;104234;1284;61301;-82
2023/08/11 07:23:47;;;;;;;3.60;2.30;;;;;;;29.00;35.55;101185.23;104021;1288;61381;-82
2023/08/11 07:26:13;;;;;;;4.50;2.30;;;;;;;29.00;35.76;101188.47;104174;1285;62498;-83
2023/08/11 07:28:38;;;;;;;4.90;2.30;;;;;;;29.01;35.63;101183.01;104093;1284;61416;-83
2023/08/11 07:31:04;;;;;;;5.10;2.30;;;;;;;29.01;35.48;101179.91;104169;1286;61388;-83
2023/08/11 07:33:29;;;;;;;7.00;2.60;;;;;;;29.01;35.53;101183.48;104040;1290;61391;-82
2023/08/11 07:35:55;;;;;;;4.00;2.50;;;;;;;29.02;35.40;101181.80;104065;1290;61520;-82
2023/08/11 07:38:20;;;;;;;4.20;2.40;;;;;;;29.02;35.32;101186.11;103998;1287;61360;-83
2023/08/11 07:40:47;;;;;;;4.80;2.80;;;;;;;29.02;35.22;101186.45;104088;1289;61392;-82
2023/08/11 07:43:13;;;;;;;3.90;2.20;;;;;;;29.02;35.29;101189.14;104329;1289;65722;-82
2023/08/11 07:45:39;;;;;;;4.60;2.50;;;;;;;29.03;35.34;101186.23;103770;1288;61304;-82
2023/08/11 07:48:06;;;;;;;4.10;2.40;;;;;;;29.03;35.37;101187.28;104165;1286;61860;-82
2023/08/11 07:50:35;;;;;;;4.70;2.60;;;;;;;29.03;34.99;101188.30;103975;1290;61399;-82
2023/08/11 07:53:00;;;;;;;5.30;2.50;;;;;;;29.04;34.93;101180.80;104175;1286;65639;-82
2023/08/11 07:55:26;;;;;;;5.00;2.50;;;;;;;29.05;34.97;101178.43;104152;1285;61308;-82
2023/08/11 07:57:51;;;;;;;3.90;2.30;;;;;;;29.05;34.82;101180.77;104176;1285;61865;-82
2023/08/11 08:00:19;;;;;;;5.10;2.80;;;;;;;29.05;34.75;101177.27;104161;1285;61313;-82
2023/08/11 08:02:45;;;;;;;3.80;2.30;;;;;;;29.05;34.87;101177.31;104048;1290;61437;-82
2023/08/11 08:05:11;;;;;;;4.20;2.40;;;;;;;29.05;34.70;101182.17;104011;1294;61286;-83
2023/08/11 08:07:36;;;;;;;4.60;2.70;;;;;;;29.05;34.68;101180.34;104154;1284;62011;-82
2023/08/11 08:10:08;;;;;;;4.40;2.40;;;;;;;29.06;34.96;101178.30;104275;1284;61381;-83
2023/08/11 08:12:38;;;;;;;4.50;2.50;;;;;;;29.05;34.68;101177.63;104304;1286;63759;-82
2023/08/11 08:15:05;;;;;;;3.80;2.30;;;;;;;29.05;34.68;101174.52;104639;1285;65617;-83
2023/08/11 08:17:31;;;;;;;4.00;2.50;;;;;;;29.06;34.77;101175.38;104212;1285;61338;-82
2023/08/11 08:19:57;;;;;;;6.70;2.40;;;;;;;29.06;34.64;101172.64;104271;1284;61467;-83
2023/08/11 08:22:22;;;;;;;4.30;2.50;;;;;;;29.07;34.46;101177.08;104217;1289;61270;-83
2023/08/11 08:24:48;;;;;;;4.80;2.60;;;;;;;29.07;34.35;101172.89;104308;1285;61746;-82
2023/08/11 08:27:17;;;;;;;3.90;2.40;;;;;;;29.07;34.54;101171.09;104692;1285;61518;-82
2023/08/11 08:29:42;;;;;;;5.60;2.50;;;;;;;29.08;34.56;101168.27;104710;1285;61279;-82
2023/08/11 08:32:08;;;;;;;5.10;2.40;;;;;;;29.08;34.62;101165.04;104527;1286;61388;-83
2023/08/11 08:34:33;;;;;;;5.50;2.50;;;;;;;29.09;34.49;101165.49;104048;1289;61394;-82
2023/08/11 08:37:00;;;;;;;5.00;2.80;;;;;;;29.09;34.31;101164.78;104105;1287;61380;-82
2023/08/11 08:39:26;;;;;;;4.10;2.70;;;;;;;29.09;34.29;101163.13;104134;1290;61275;-83
2023/08/11 08:41:51;;;;;;;6.00;2.50;;;;;;;29.09;34.21;101159.29;104081;1289;61382;-82
2023/08/11 08:44:18;;;;;;;4.30;2.50;;;;;;;29.09;34.24;101158.60;104072;1286;61402;-82
2023/08/11 08:46:44;;;;;;;3.90;2.40;;;;;;;29.09;34.17;101158.92;104044;1286;61325;-82
2023/08/11 08:49:22;;;;;;;4.40;2.60;;;;;;;29.09;34.05;101159.48;104071;1286;61378;-83
2023/08/11 08:51:48;;;;;;;4.00;2.30;;;;;;;29.09;34.09;101157.67;103917;1287;61397;-82
2023/08/11 08:54:14;;;;;;;5.10;2.70;;;;;;;29.09;34.23;101160.03;103967;1290;61327;-83
2023/08/11 08:56:40;;;;;;;4.90;2.60;;;;;;;29.09;34.03;101159.32;104095;1290;61479;-82
2023/08/11 08:59:06;;;;;;;4.20;2.60;;;;;;;29.09;33.91;101157.52;104193;1286;61368;-82
2023/08/11 09:01:33;;;;;;;5.50;2.40;;;;;;;29.09;33.97;101155.17;104240;1285;61331;-82
2023/08/11 09:03:58;;;;;;;5.80;2.70;;;;;;;29.09;34.00;101155.14;103913;1291;61411;-82
2023/08/11 09:06:24;;;;;;;4.00;2.30;;;;;;;29.09;33.93;101159.66;104013;1286;61335;-82
2023/08/11 09:08:49;;;;;;;3.70;2.30;;;;;;;29.09;33.99;101160.92;104160;1286;61895;-82
2023/08/11 09:11:15;;;;;;;5.80;2.30;;;;;;;29.10;33.93;101162.11;104126;1286;61360;-82
2023/08/11 09:13:48;;;;;;;4.50;2.50;;;;;;;29.10;33.81;101161.03;104030;1285;61557;-82
2023/08/11 09:16:14;;;;;;;5.40;2.70;;;;;;;29.09;33.96;101161.63;104060;1285;63988;-82
2023/08/11 09:18:40;;;;;;;4.10;2.30;;;;;;;29.10;33.87;101164.34;104057;1286;61396;-82
2023/08/11 09:21:07;;;;;;;4.80;2.70;;;;;;;29.10;33.77;101165.04;104462;1286;61261;-82
2023/08/11 09:23:33;;;;;;;5.20;2.70;;;;;;;29.10;33.82;101165.20;103806;1291;62378;-82
2023/08/11 09:26:02;;;;;;;4.40;2.50;;;;;;;29.10;33.92;101162.86;104053;1287;61319;-82
2023/08/11 09:28:27;;;;;;;4.40;2.60;;;;;;;29.10;33.83;101160.52;104063;1285;65859;-82
2023/08/11 09:30:53;;;;;;;6.70;2.70;;;;;;;29.09;33.72;101162.52;104161;1287;61283;-81
2023/08/11 09:33:22;;;;;;;4.80;2.80;;;;;;;29.10;33.68;101167.96;104123;1290;61281;-82
2023/08/11 09:35:48;;;;;;;6.90;2.70;;;;;;;29.10;33.69;101166.87;104222;1286;63625;-83
2023/08/11 09:38:14;;;;;;;6.40;3.00;;;;;;;29.09;33.55;101166.36;104069;1287;61414;-82
2023/08/11 09:40:43;;;;;;;4.70;2.40;;;;;;;29.10;33.59;101163.21;104054;1292;61393;-82
2023/08/11 09:43:10;;;;;;;5.70;2.70;;;;;;;29.10;33.53;101161.77;104047;1289;62157;-83
2023/08/11 09:45:36;;;;;;;6.00;2.80;;;;;;;29.10;33.58;101158.14;103773;1292;63825;-82
2023/08/11 09:48:02;;;;;;;4.80;2.70;;;;;;;29.09;33.47;101154.56;103939;1286;61398;-83
2023/08/11 09:50:28;;;;;;;3.70;2.60;;;;;;;29.10;33.39;101152.36;104382;1284;61770;-83
2023/08/11 09:52:53;;;;;;;5.40;2.60;;;;;;;29.10;33.45;101152.19;103962;1285;62352;-83
2023/08/11 09:55:19;;;;;;;5.70;2.50;;;;;;;29.10;33.69;101150.55;103946;1287;61471;-83
2023/08/11 09:57:44;;;;;;;5.20;2.60;;;;;;;29.11;33.54;101150.64;103869;1286;61276;-83
2023/08/11 10:00:13;;;;;;;4.60;2.80;;;;;;;29.11;33.31;101144.86;103943;1289;61996;-83
2023/08/11 10:03:00;;;;;;;5.40;2.70;;;;;;;29.10;33.45;101141.05;103764;1285;61398;-83
2023/08/11 10:05:26;;;;;;;4.00;2.50;;;;;;;29.10;33.45;101139.51;103982;1284;61318;-83
2023/08/11 10:07:51;;;;;;;5.00;2.50;;;;;;;29.10;33.41;101136.24;103905;1285;61381;-83
2023/08/11 10:10:17;;;;;;;5.70;2.70;;;;;;;29.10;33.42;101138.91;103944;1289;61315;-82
2023/08/11 10:13:00;;;;;;;5.30;2.80;;;;;;;29.09;33.36;101139.55;103956;1289;61810;-82
2023/08/11 10:15:26;;;;;;;5.10;2.70;;;;;;;29.09;33.33;101134.48;103958;1285;61297;-82
2023/08/11 10:17:52;;;;;;;4.60;2.90;;;;;;;29.09;33.56;101132.66;104199;1289;61377;-83
2023/08/11 10:20:17;;;;;;;5.80;3.10;;;;;;;29.10;33.30;101133.13;103917;1285;61991;-82
2023/08/11 10:22:43;;;;;;;4.40;2.90;;;;;;;29.09;33.41;101134.69;103955;1288;61749;-82
2023/08/11 10:25:08;;;;;;;4.60;2.60;;;;;;;29.09;33.22;101132.11;103970;1286;61351;-82
2023/08/11 10:27:35;;;;;;;4.30;2.80;;;;;;;29.10;33.30;101125.02;103862;1286;61259;-82
2023/08/11 10:30:04;;;;;;;4.60;3.10;;;;;;;29.10;33.39;101123.02;103835;1289;63804;-83
2023/08/11 10:32:33;;;;;;;5.10;3.40;;;;;;;29.10;33.61;101122.98;103808;1286;65875;-82
2023/08/11 10:34:58;;;;;;;6.00;3.60;;;;;;;29.10;33.27;101124.06;103781;1292;61308;-82
2023/08/11 10:37:33;;;;;;;5.40;3.10;;;;;;;29.10;33.35;101126.06;104001;1287;61966;-83
2023/08/11 10:40:07;;;;;;;5.30;3.00;;;;;;;29.09;33.45;101125.21;103874;1290;63841;-83
2023/08/11 10:42:36;;;;;;;7.80;3.40;;;;;;;29.09;33.41;101123.61;103904;1290;65960;-83
2023/08/11 10:45:09;;;;;;;6.40;3.60;;;;;;;29.09;33.46;101123.05;103636;1288;62344;-83
2023/08/11 10:47:44;;;;;;;6.30;3.50;;;;;;;29.09;33.47;101122.73;103742;1286;61467;-83
2023/08/11 10:50:12;;;;;;;6.70;3.40;;;;;;;29.08;33.36;101120.42;103650;1286;63690;-83
2023/08/11 10:52:38;;;;;;;5.60;3.50;;;;;;;29.08;33.27;101120.25;103736;1286;65964;-83
2023/08/11 10:55:04;;;;;;;6.40;3.40;;;;;;;29.09;33.51;101121.81;103809;1286;62467;-83
2023/08/11 10:57:33;;;;;;;5.20;3.10;;;;;;;29.08;33.50;101125.11;103942;1285;61380;-83
2023/08/11 10:59:59;;;;;;;6.00;3.90;;;;;;;29.08;33.25;101124.08;103901;1285;63712;-83
2023/08/11 11:02:25;;;;;;;5.30;3.50;;;;;;;29.08;33.36;101120.80;103865;1290;61383;-83
2023/08/11 11:04:51;;;;;;;5.10;3.70;;;;;;;29.08;33.34;101118.60;104024;1288;61469;-82
2023/08/11 11:07:18;;;;;;;5.70;3.70;;;;;;;29.08;33.32;101118.85;104155;1286;61337;-83
2023/08/11 11:09:44;;;;;;;4.90;3.50;;;;;;;29.08;33.41;101117.80;104026;1287;61334;-83
2023/08/11 11:12:09;;;;;;;5.80;3.70;;;;;;;29.08;33.47;101118.88;104165;1288;62348;-83
2023/08/11 11:14:36;;;;;;;5.90;4.10;;;;;;;29.08;33.43;101113.96;104221;1290;61299;-82